createdAt,value
2017-07-23T00:00:41.408Z,0
2017-07-23T00:01:56.849Z,0
2017-07-23T00:03:12.509Z,0
2017-07-23T00:04:26.640Z,0
2017-07-23T00:05:42.135Z,0
2017-07-23T00:06:57.667Z,0
2017-07-23T00:08:13.377Z,0
2017-07-23T00:09:28.852Z,0
2017-07-23T00:10:44.259Z,0
2017-07-23T00:11:59.674Z,0
2017-07-23T00:13:15.417Z,0
2017-07-23T00:14:30.903Z,0
2017-07-23T00:15:46.408Z,0
2017-07-23T00:17:01.908Z,0
2017-07-23T00:18:17.613Z,0
2017-07-23T00:19:31.746Z,0
2017-07-23T00:20:47.213Z,0
2017-07-23T00:22:02.684Z,0
2017-07-23T00:23:18.397Z,0
2017-07-23T00:24:34.048Z,0
2017-07-23T00:25:49.619Z,0
2017-07-23T00:27:05.070Z,0
2017-07-23T00:28:20.790Z,0
2017-07-23T00:29:36.046Z,0
2017-07-23T00:30:51.574Z,0
2017-07-23T00:32:07.017Z,0
2017-07-23T00:33:22.743Z,0
2017-07-23T00:34:38.183Z,0
2017-07-23T00:35:53.636Z,0
2017-07-23T00:37:09.121Z,0
2017-07-23T00:38:24.876Z,0
2017-07-23T00:39:39.064Z,0
2017-07-23T00:40:53.205Z,0
2017-07-23T00:42:08.677Z,0
2017-07-23T00:43:37.993Z,0
2017-07-23T00:44:53.509Z,0
2017-07-23T00:46:09.117Z,0
2017-07-23T00:47:24.775Z,0
2017-07-23T00:48:40.489Z,0
2017-07-23T00:49:55.965Z,0
2017-07-23T00:51:11.593Z,0
2017-07-23T00:52:27.041Z,0
2017-07-23T00:53:42.748Z,0
2017-07-23T00:54:58.256Z,0
2017-07-23T00:56:13.698Z,0
2017-07-23T00:57:28.903Z,0
2017-07-23T00:58:44.639Z,0
2017-07-23T01:00:00.066Z,0
2017-07-23T01:01:15.539Z,0
2017-07-23T01:02:29.663Z,0
2017-07-23T01:03:45.367Z,0
2017-07-23T01:05:00.830Z,0
2017-07-23T01:06:16.299Z,0
2017-07-23T01:07:31.930Z,0
2017-07-23T01:08:47.729Z,0
2017-07-23T01:10:03.241Z,0
2017-07-23T01:11:18.683Z,0
2017-07-23T01:12:32.697Z,0
2017-07-23T01:13:48.415Z,0
2017-07-23T01:15:03.860Z,0
2017-07-23T01:16:19.332Z,0
2017-07-23T01:17:34.962Z,0
2017-07-23T01:18:49.504Z,0
2017-07-23T01:20:05.186Z,0
2017-07-23T01:21:20.465Z,0
2017-07-23T01:22:35.901Z,0
2017-07-23T01:23:51.590Z,0
2017-07-23T01:25:05.752Z,0
2017-07-23T01:26:21.194Z,0
2017-07-23T01:27:35.323Z,0
2017-07-23T01:28:51.015Z,0
2017-07-23T01:30:06.510Z,0
2017-07-23T01:31:21.964Z,0
2017-07-23T01:32:37.471Z,0
2017-07-23T01:33:53.190Z,0
2017-07-23T01:35:08.832Z,0
2017-07-23T01:36:24.363Z,0
2017-07-23T01:37:39.840Z,0
2017-07-23T01:38:55.970Z,0
2017-07-23T01:40:11.464Z,0
2017-07-23T01:41:26.930Z,0
2017-07-23T01:42:42.328Z,0
2017-07-23T01:43:58.033Z,0
2017-07-23T01:45:13.667Z,0
2017-07-23T01:46:29.147Z,0
2017-07-23T01:47:44.611Z,0
2017-07-23T01:49:00.335Z,0
2017-07-23T01:50:15.963Z,0
2017-07-23T01:51:31.425Z,0
2017-07-23T01:52:46.897Z,0
2017-07-23T01:54:02.578Z,0
2017-07-23T01:55:18.004Z,0
2017-07-23T01:56:33.491Z,0
2017-07-23T01:57:49.156Z,0
2017-07-23T01:59:04.827Z,0
2017-07-23T02:00:20.420Z,0
2017-07-23T02:01:35.846Z,0
2017-07-23T02:02:51.300Z,0
2017-07-23T02:04:07.143Z,0
2017-07-23T02:05:22.588Z,0
2017-07-23T02:06:38.049Z,0
2017-07-23T02:07:53.440Z,0
2017-07-23T02:09:09.167Z,0
2017-07-23T02:10:24.665Z,0
2017-07-23T02:11:40.142Z,0
2017-07-23T02:12:54.338Z,0
2017-07-23T02:14:10.175Z,0
2017-07-23T02:15:25.749Z,0
2017-07-23T02:16:41.196Z,0
2017-07-23T02:17:56.720Z,0
2017-07-23T02:19:11.272Z,0
2017-07-23T02:20:26.723Z,0
2017-07-23T02:21:42.168Z,0
2017-07-23T02:22:57.619Z,0
2017-07-23T02:24:13.329Z,0
2017-07-23T02:25:28.779Z,0
2017-07-23T02:26:44.215Z,0
2017-07-23T02:27:59.668Z,0
2017-07-23T02:29:15.386Z,0
2017-07-23T02:30:30.857Z,0
2017-07-23T02:31:46.321Z,0
2017-07-23T02:33:01.797Z,0
2017-07-23T02:34:17.532Z,0
2017-07-23T02:35:33.039Z,0
2017-07-23T02:36:48.503Z,0
2017-07-23T02:38:03.972Z,0
2017-07-23T02:39:18.326Z,0
2017-07-23T02:40:33.764Z,0
2017-07-23T02:41:49.190Z,0
2017-07-23T02:43:04.669Z,0
2017-07-23T02:44:20.454Z,0
2017-07-23T02:45:34.824Z,0
2017-07-23T02:46:48.976Z,0
2017-07-23T02:48:04.410Z,0
2017-07-23T02:49:20.084Z,0
2017-07-23T02:50:35.551Z,0
2017-07-23T02:51:50.979Z,0
2017-07-23T02:53:06.405Z,0
2017-07-23T02:54:20.814Z,0
2017-07-23T02:55:36.451Z,0
2017-07-23T02:56:51.877Z,0
2017-07-23T02:58:07.326Z,0
2017-07-23T02:59:23.024Z,0
2017-07-23T03:00:38.458Z,0
2017-07-23T03:01:53.892Z,0
2017-07-23T03:03:09.358Z,0
2017-07-23T03:04:25.061Z,0
2017-07-23T03:05:40.400Z,0
2017-07-23T03:06:55.849Z,0
2017-07-23T03:08:11.298Z,0
2017-07-23T03:09:25.712Z,0
2017-07-23T03:10:41.154Z,0
2017-07-23T03:11:56.771Z,0
2017-07-23T03:13:11.876Z,0
2017-07-23T03:14:27.605Z,0
2017-07-23T03:15:43.075Z,0
2017-07-23T03:16:58.699Z,0
2017-07-23T03:18:14.149Z,0
2017-07-23T03:19:28.511Z,0
2017-07-23T03:20:43.983Z,0
2017-07-23T03:21:59.429Z,0
2017-07-23T03:23:15.093Z,0
2017-07-23T03:24:30.975Z,0
2017-07-23T03:25:46.423Z,0
2017-07-23T03:27:01.719Z,5
2017-07-23T03:28:15.817Z,5
2017-07-23T03:29:31.525Z,10
2017-07-23T03:30:45.682Z,10
2017-07-23T03:32:01.171Z,10
2017-07-23T03:33:16.753Z,10
2017-07-23T03:34:32.425Z,10
2017-07-23T03:35:47.899Z,10
2017-07-23T03:37:03.373Z,10
2017-07-23T03:38:18.824Z,10
2017-07-23T03:39:34.575Z,0
2017-07-23T03:40:50.025Z,0
2017-07-23T03:42:05.503Z,0
2017-07-23T03:43:20.602Z,0
2017-07-23T03:44:36.544Z,0
2017-07-23T03:45:50.650Z,0
2017-07-23T03:47:04.847Z,0
2017-07-23T03:48:20.306Z,0
2017-07-23T03:49:36.032Z,0
2017-07-23T03:50:51.432Z,0
2017-07-23T03:52:04.312Z,0
2017-07-23T03:53:19.757Z,0
2017-07-23T03:54:35.524Z,0
2017-07-23T03:55:50.997Z,0
2017-07-23T03:57:06.592Z,0
2017-07-23T03:58:22.185Z,0
2017-07-23T03:59:38.099Z,0
2017-07-23T04:00:53.555Z,0
2017-07-23T04:02:08.983Z,0
2017-07-23T04:03:24.486Z,0
2017-07-23T04:04:40.192Z,0
2017-07-23T04:05:55.667Z,0
2017-07-23T04:07:11.199Z,0
2017-07-23T04:08:26.291Z,0
2017-07-23T04:09:40.656Z,0
2017-07-23T04:10:56.123Z,0
2017-07-23T04:12:11.598Z,0
2017-07-23T04:13:27.013Z,0
2017-07-23T04:14:42.618Z,0
2017-07-23T04:15:56.781Z,0
2017-07-23T04:17:12.228Z,0
2017-07-23T04:18:27.831Z,0
2017-07-23T04:19:43.541Z,0
2017-07-23T04:21:11.291Z,0
2017-07-23T04:22:26.749Z,0
2017-07-23T04:23:42.218Z,0
2017-07-23T04:24:58.206Z,0
2017-07-23T04:26:13.747Z,5
2017-07-23T04:27:29.218Z,5
2017-07-23T04:28:44.890Z,5
2017-07-23T04:30:00.640Z,10
2017-07-23T04:31:16.222Z,15
2017-07-23T04:32:31.746Z,15
2017-07-23T04:33:47.290Z,20
2017-07-23T04:35:01.709Z,20
2017-07-23T04:36:17.164Z,20
2017-07-23T04:37:32.637Z,20
2017-07-23T04:38:46.803Z,20
2017-07-23T04:40:01.072Z,25
2017-07-23T04:41:16.540Z,25
2017-07-23T04:42:31.986Z,30
2017-07-23T04:43:47.565Z,30
2017-07-23T04:45:02.908Z,30
2017-07-23T04:46:18.383Z,30
2017-07-23T04:47:33.857Z,35
2017-07-23T04:48:49.437Z,35
2017-07-23T04:50:05.147Z,40
2017-07-23T04:51:20.615Z,45
2017-07-23T04:52:36.104Z,55
2017-07-23T04:53:51.579Z,65
2017-07-23T04:55:06.913Z,75
2017-07-23T04:56:22.408Z,90
2017-07-23T04:57:37.885Z,100
2017-07-23T04:58:53.350Z,110
2017-07-23T05:00:09.047Z,120
2017-07-23T05:01:24.778Z,125
2017-07-23T05:02:39.039Z,130
2017-07-23T05:03:54.568Z,150
2017-07-23T05:05:10.262Z,170
2017-07-23T05:06:25.716Z,180
2017-07-23T05:07:39.818Z,190
2017-07-23T05:08:55.400Z,195
2017-07-23T05:10:11.089Z,200
2017-07-23T05:11:26.200Z,200
2017-07-23T05:12:41.855Z,200
2017-07-23T05:13:55.973Z,190
2017-07-23T05:15:11.560Z,175
2017-07-23T05:16:27.020Z,155
2017-07-23T05:17:42.486Z,140
2017-07-23T05:18:57.956Z,140
2017-07-23T05:20:13.627Z,165
2017-07-23T05:21:29.036Z,180
2017-07-23T05:22:44.734Z,185
2017-07-23T05:24:00.243Z,180
2017-07-23T05:25:14.722Z,180
2017-07-23T05:26:30.121Z,190
2017-07-23T05:27:45.605Z,185
2017-07-23T05:29:01.033Z,175
2017-07-23T05:30:16.689Z,145
2017-07-23T05:31:32.110Z,125
2017-07-23T05:32:46.280Z,110
2017-07-23T05:34:01.726Z,105
2017-07-23T05:35:16.117Z,95
2017-07-23T05:36:31.745Z,85
2017-07-23T05:37:47.212Z,85
2017-07-23T05:39:01.437Z,85
2017-07-23T05:40:15.730Z,95
2017-07-23T05:41:31.202Z,105
2017-07-23T05:42:46.690Z,110
2017-07-23T05:44:02.194Z,115
2017-07-23T05:45:17.915Z,125
2017-07-23T05:46:33.380Z,135
2017-07-23T05:47:49.081Z,150
2017-07-23T05:49:04.554Z,160
2017-07-23T05:50:20.200Z,165
2017-07-23T05:51:35.678Z,175
2017-07-23T05:52:51.096Z,195
2017-07-23T05:54:06.669Z,210
2017-07-23T05:55:22.379Z,230
2017-07-23T05:56:37.887Z,245
2017-07-23T05:57:53.324Z,260
2017-07-23T05:59:08.757Z,280
2017-07-23T06:00:23.650Z,295
2017-07-23T06:01:39.105Z,300
2017-07-23T06:02:54.585Z,310
2017-07-23T06:04:10.045Z,315
2017-07-23T06:05:25.757Z,315
2017-07-23T06:06:41.431Z,320
2017-07-23T06:07:56.861Z,325
2017-07-23T06:09:12.324Z,330
2017-07-23T06:10:28.040Z,330
2017-07-23T06:11:43.697Z,335
2017-07-23T06:12:57.687Z,330
2017-07-23T06:14:13.097Z,325
2017-07-23T06:15:28.450Z,330
2017-07-23T06:16:42.642Z,335
2017-07-23T06:17:58.116Z,345
2017-07-23T06:19:13.761Z,360
2017-07-23T06:20:29.476Z,375
2017-07-23T06:21:44.915Z,395
2017-07-23T06:23:00.432Z,415
2017-07-23T06:24:15.858Z,425
2017-07-23T06:25:31.656Z,440
2017-07-23T06:26:47.181Z,450
2017-07-23T06:28:02.712Z,465
2017-07-23T06:29:18.262Z,445
2017-07-23T06:30:33.972Z,450
2017-07-23T06:31:49.622Z,455
2017-07-23T06:33:05.274Z,450
2017-07-23T06:34:20.697Z,435
2017-07-23T06:35:35.069Z,405
2017-07-23T06:36:49.234Z,410
2017-07-23T06:38:04.726Z,400
2017-07-23T06:39:20.181Z,405
2017-07-23T06:40:35.914Z,405
2017-07-23T06:41:50.025Z,400
2017-07-23T06:43:05.432Z,405
2017-07-23T06:44:20.986Z,405
2017-07-23T06:45:35.226Z,410
2017-07-23T06:46:50.902Z,415
2017-07-23T06:48:06.394Z,405
2017-07-23T06:49:21.826Z,400
2017-07-23T06:50:37.535Z,400
2017-07-23T06:51:53.076Z,395
2017-07-23T06:53:07.216Z,400
2017-07-23T06:54:22.861Z,390
2017-07-23T06:55:38.571Z,390
2017-07-23T06:56:52.898Z,390
2017-07-23T06:58:08.352Z,390
2017-07-23T06:59:23.764Z,390
2017-07-23T07:00:39.477Z,390
2017-07-23T07:01:54.926Z,385
2017-07-23T07:03:09.136Z,375
2017-07-23T07:04:23.366Z,370
2017-07-23T07:05:39.079Z,370
2017-07-23T07:06:54.795Z,370
2017-07-23T07:08:10.343Z,380
2017-07-23T07:09:26.186Z,385
2017-07-23T07:10:41.901Z,395
2017-07-23T07:11:57.395Z,400
2017-07-23T07:13:11.504Z,395
2017-07-23T07:14:25.842Z,400
2017-07-23T07:15:41.578Z,395
2017-07-23T07:16:57.013Z,395
2017-07-23T07:18:12.595Z,385
2017-07-23T07:19:28.129Z,380
2017-07-23T07:20:43.842Z,385
2017-07-23T07:21:59.300Z,385
2017-07-23T07:23:14.855Z,380
2017-07-23T07:24:30.289Z,380
2017-07-23T07:25:46.021Z,375
2017-07-23T07:27:01.118Z,375
2017-07-23T07:28:16.567Z,380
2017-07-23T07:29:32.046Z,380
2017-07-23T07:30:46.388Z,390
2017-07-23T07:32:01.827Z,400
2017-07-23T07:33:16.180Z,380
2017-07-23T07:34:31.717Z,370
2017-07-23T07:35:47.377Z,335
2017-07-23T07:37:02.850Z,305
2017-07-23T07:38:17.912Z,300
2017-07-23T07:39:32.053Z,310
2017-07-23T07:40:47.782Z,340
2017-07-23T07:42:03.430Z,370
2017-07-23T07:43:19.035Z,395
2017-07-23T07:44:34.505Z,395
2017-07-23T07:45:50.267Z,410
2017-07-23T07:47:05.748Z,420
2017-07-23T07:48:21.259Z,450
2017-07-23T07:49:36.708Z,430
2017-07-23T07:50:52.438Z,475
2017-07-23T07:52:07.944Z,465
2017-07-23T07:53:23.387Z,455
2017-07-23T07:54:37.597Z,460
2017-07-23T07:55:53.304Z,500
2017-07-23T07:57:08.773Z,605
2017-07-23T07:58:23.885Z,745
2017-07-23T07:59:39.367Z,865
2017-07-23T08:01:08.578Z,895
2017-07-23T08:02:24.044Z,905
2017-07-23T08:03:39.564Z,945
2017-07-23T08:04:55.206Z,950
2017-07-23T08:06:10.939Z,935
2017-07-23T08:07:26.370Z,860
2017-07-23T08:08:42.068Z,845
2017-07-23T08:09:57.558Z,865
2017-07-23T08:11:13.311Z,850
2017-07-23T08:12:28.818Z,865
2017-07-23T08:13:43.006Z,845
2017-07-23T08:14:58.745Z,825
2017-07-23T08:16:14.451Z,740
2017-07-23T08:17:29.913Z,695
2017-07-23T08:18:45.390Z,610
2017-07-23T08:20:01.297Z,505
2017-07-23T08:21:17.023Z,485
2017-07-23T08:22:32.736Z,535
2017-07-23T08:23:48.210Z,550
2017-07-23T08:25:03.716Z,600
2017-07-23T08:26:19.425Z,640
2017-07-23T08:27:34.900Z,625
2017-07-23T08:28:49.245Z,590
2017-07-23T08:30:04.726Z,555
2017-07-23T08:31:20.409Z,480
2017-07-23T08:32:35.902Z,415
2017-07-23T08:33:51.368Z,370
2017-07-23T08:35:06.964Z,355
2017-07-23T08:36:22.789Z,370
2017-07-23T08:37:36.956Z,380
2017-07-23T08:38:52.446Z,425
2017-07-23T08:40:07.943Z,495
2017-07-23T08:41:23.854Z,525
2017-07-23T08:42:39.326Z,505
2017-07-23T08:43:55.035Z,445
2017-07-23T08:45:10.765Z,420
2017-07-23T08:46:26.600Z,470
2017-07-23T08:47:42.297Z,495
2017-07-23T08:48:57.402Z,480
2017-07-23T08:50:12.868Z,545
2017-07-23T08:51:28.565Z,525
2017-07-23T08:52:44.059Z,515
2017-07-23T08:53:59.561Z,560
2017-07-23T08:55:15.064Z,595
2017-07-23T08:56:30.819Z,635
2017-07-23T08:57:46.248Z,780
2017-07-23T08:59:01.755Z,1015
2017-07-23T09:00:17.163Z,780
2017-07-23T09:01:32.933Z,1260
2017-07-23T09:02:48.402Z,1780
2017-07-23T09:04:03.899Z,3430
2017-07-23T09:05:19.576Z,2005
2017-07-23T09:06:35.268Z,2210
2017-07-23T09:07:50.702Z,3975
2017-07-23T09:09:06.271Z,1530
2017-07-23T09:10:21.716Z,3330
2017-07-23T09:11:36.059Z,1380
2017-07-23T09:12:51.537Z,1045
2017-07-23T09:14:07.000Z,1075
2017-07-23T09:15:22.643Z,1745
2017-07-23T09:16:38.431Z,1845
2017-07-23T09:17:53.931Z,3420
2017-07-23T09:19:09.756Z,3915
2017-07-23T09:20:25.251Z,1430
2017-07-23T09:21:41.157Z,4230
2017-07-23T09:22:56.675Z,3090
2017-07-23T09:24:12.190Z,2395
2017-07-23T09:25:27.698Z,3650
2017-07-23T09:26:43.591Z,3650
2017-07-23T09:27:59.054Z,3610
2017-07-23T09:29:13.202Z,3500
2017-07-23T09:30:28.718Z,3450
2017-07-23T09:31:44.486Z,3445
2017-07-23T09:32:59.997Z,3325
2017-07-23T09:34:15.472Z,3460
2017-07-23T09:35:30.997Z,1215
2017-07-23T09:36:47.147Z,2365
2017-07-23T09:38:02.625Z,1160
2017-07-23T09:39:18.151Z,3740
2017-07-23T09:40:33.640Z,2540
2017-07-23T09:41:49.349Z,4335
2017-07-23T09:43:04.834Z,4130
2017-07-23T09:44:20.325Z,4015
2017-07-23T09:45:35.829Z,3955
2017-07-23T09:46:51.811Z,3835
2017-07-23T09:48:07.343Z,1230
2017-07-23T09:49:22.926Z,740
2017-07-23T09:50:38.481Z,605
2017-07-23T09:51:54.293Z,1070
2017-07-23T09:53:09.795Z,1560
2017-07-23T09:54:23.967Z,1865
2017-07-23T09:55:39.465Z,705
2017-07-23T09:56:55.255Z,3215
2017-07-23T09:58:10.958Z,3185
2017-07-23T09:59:26.678Z,3300
2017-07-23T10:00:42.204Z,3665
2017-07-23T10:01:58.784Z,3950
2017-07-23T10:03:14.479Z,2855
2017-07-23T10:04:29.979Z,935
2017-07-23T10:05:45.701Z,835
2017-07-23T10:07:01.403Z,3580
2017-07-23T10:08:16.908Z,2705
2017-07-23T10:09:32.577Z,2105
2017-07-23T10:10:48.084Z,4235
2017-07-23T10:12:03.793Z,4395
2017-07-23T10:13:19.224Z,2475
2017-07-23T10:14:34.691Z,770
2017-07-23T10:15:50.224Z,955
2017-07-23T10:17:06.051Z,3930
2017-07-23T10:18:21.541Z,665
2017-07-23T10:19:35.717Z,480
2017-07-23T10:20:50.346Z,380
2017-07-23T10:22:06.091Z,335
2017-07-23T10:23:21.490Z,310
2017-07-23T10:24:35.916Z,260
2017-07-23T10:25:51.400Z,270
2017-07-23T10:27:07.200Z,300
2017-07-23T10:28:22.709Z,325
2017-07-23T10:29:38.368Z,350
2017-07-23T10:30:53.842Z,415
2017-07-23T10:32:09.234Z,480
2017-07-23T10:33:24.719Z,665
2017-07-23T10:34:40.404Z,745
2017-07-23T10:35:55.870Z,740
2017-07-23T10:37:11.592Z,600
2017-07-23T10:38:27.060Z,555
2017-07-23T10:39:42.541Z,495
2017-07-23T10:40:58.181Z,525
2017-07-23T10:42:13.574Z,525
2017-07-23T10:43:29.047Z,460
2017-07-23T10:44:44.554Z,510
2017-07-23T10:46:00.020Z,710
2017-07-23T10:47:15.908Z,730
2017-07-23T10:48:31.382Z,690
2017-07-23T10:49:46.852Z,720
2017-07-23T10:51:02.411Z,750
2017-07-23T10:52:18.141Z,790
2017-07-23T10:53:33.635Z,4600
2017-07-23T10:54:49.114Z,935
2017-07-23T10:56:04.801Z,1455
2017-07-23T10:57:20.652Z,1480
2017-07-23T10:58:36.172Z,2220
2017-07-23T10:59:51.614Z,3305
2017-07-23T11:01:06.876Z,4105
2017-07-23T11:02:22.883Z,3210
2017-07-23T11:03:38.378Z,1160
2017-07-23T11:04:53.879Z,2210
2017-07-23T11:06:09.379Z,3925
2017-07-23T11:07:25.340Z,4355
2017-07-23T11:08:41.025Z,4500
2017-07-23T11:09:56.723Z,4500
2017-07-23T11:11:12.231Z,4515
2017-07-23T11:12:27.930Z,4520
2017-07-23T11:13:43.507Z,4475
2017-07-23T11:14:59.196Z,4675
2017-07-23T11:16:14.681Z,5020
2017-07-23T11:17:30.461Z,5115
2017-07-23T11:18:45.980Z,5175
2017-07-23T11:20:01.470Z,5135
2017-07-23T11:21:15.637Z,5000
2017-07-23T11:22:31.423Z,5020
2017-07-23T11:24:17.758Z,4970
2017-07-23T11:25:33.362Z,5110
2017-07-23T11:26:48.888Z,5400
2017-07-23T11:28:04.592Z,3730
2017-07-23T11:29:18.602Z,5360
2017-07-23T11:30:34.274Z,960
2017-07-23T11:31:49.831Z,735
2017-07-23T11:33:05.591Z,685
2017-07-23T11:34:21.108Z,710
2017-07-23T11:35:36.623Z,745
2017-07-23T11:37:05.743Z,1080
2017-07-23T11:38:21.510Z,920
2017-07-23T11:39:37.202Z,635
2017-07-23T11:40:51.369Z,1140
2017-07-23T11:42:06.849Z,860
2017-07-23T11:43:22.766Z,695
2017-07-23T11:44:38.358Z,485
2017-07-23T11:45:54.014Z,570
2017-07-23T11:47:09.659Z,630
2017-07-23T11:48:25.386Z,595
2017-07-23T11:49:40.890Z,560
2017-07-23T11:50:56.413Z,630
2017-07-23T11:52:11.928Z,750
2017-07-23T11:53:27.641Z,740
2017-07-23T11:54:43.146Z,720
2017-07-23T11:55:58.683Z,765
2017-07-23T11:57:14.244Z,1010
2017-07-23T11:58:29.987Z,1370
2017-07-23T11:59:45.500Z,1515
2017-07-23T12:01:01.076Z,4315
2017-07-23T12:02:16.559Z,945
2017-07-23T12:03:31.913Z,855
2017-07-23T12:04:47.509Z,1185
2017-07-23T12:06:01.679Z,1455
2017-07-23T12:07:17.201Z,1150
2017-07-23T12:08:33.154Z,1490
2017-07-23T12:09:48.688Z,2695
2017-07-23T12:11:04.261Z,2330
2017-07-23T12:12:19.849Z,1185
2017-07-23T12:13:35.606Z,4250
2017-07-23T12:14:51.184Z,880
2017-07-23T12:16:06.638Z,2850
2017-07-23T12:17:20.841Z,615
2017-07-23T12:18:36.874Z,4325
2017-07-23T12:19:52.396Z,4455
2017-07-23T12:21:07.921Z,4415
2017-07-23T12:22:23.083Z,4240
2017-07-23T12:23:38.867Z,3945
2017-07-23T12:24:54.365Z,3345
2017-07-23T12:26:09.832Z,3665
2017-07-23T12:27:24.461Z,4300
2017-07-23T12:28:38.885Z,4780
2017-07-23T12:29:53.087Z,5105
2017-07-23T12:31:07.139Z,5225
2017-07-23T12:32:22.608Z,990
2017-07-23T12:33:38.557Z,885
2017-07-23T12:34:54.073Z,1005
2017-07-23T12:36:09.575Z,1290
2017-07-23T12:37:23.910Z,1090
2017-07-23T12:38:39.862Z,2475
2017-07-23T12:39:55.437Z,1680
2017-07-23T12:41:09.681Z,4420
2017-07-23T12:42:25.210Z,4320
2017-07-23T12:43:41.179Z,4210
2017-07-23T12:44:56.883Z,4275
2017-07-23T12:46:11.074Z,4305
2017-07-23T12:47:26.608Z,4395
2017-07-23T12:48:42.544Z,4625
2017-07-23T12:49:58.019Z,4785
2017-07-23T12:51:12.202Z,4780
2017-07-23T12:52:27.954Z,4645
2017-07-23T12:53:42.386Z,4645
2017-07-23T12:54:57.908Z,4250
2017-07-23T12:56:13.457Z,965
2017-07-23T12:57:28.938Z,1055
2017-07-23T12:58:44.973Z,4550
2017-07-23T13:00:00.690Z,4290
2017-07-23T13:01:16.148Z,4175
2017-07-23T13:02:31.682Z,1615
2017-07-23T13:03:47.510Z,3455
2017-07-23T13:05:03.251Z,2140
2017-07-23T13:06:18.732Z,1795
2017-07-23T13:07:34.365Z,1150
2017-07-23T13:08:50.153Z,1155
2017-07-23T13:10:05.716Z,1140
2017-07-23T13:11:21.221Z,1220
2017-07-23T13:12:36.699Z,3430
2017-07-23T13:13:52.439Z,900
2017-07-23T13:15:08.039Z,645
2017-07-23T13:16:23.614Z,590
2017-07-23T13:17:39.109Z,605
2017-07-23T13:18:54.862Z,695
2017-07-23T13:20:10.333Z,590
2017-07-23T13:21:24.547Z,550
2017-07-23T13:22:40.069Z,1165
2017-07-23T13:23:55.804Z,865
2017-07-23T13:25:11.521Z,1020
2017-07-23T13:26:26.966Z,2440
2017-07-23T13:27:42.488Z,4035
2017-07-23T13:28:58.262Z,4165
2017-07-23T13:30:13.797Z,1745
2017-07-23T13:31:29.492Z,1830
2017-07-23T13:32:45.249Z,3185
2017-07-23T13:34:00.988Z,1315
2017-07-23T13:35:16.480Z,3440
2017-07-23T13:36:31.974Z,3205
2017-07-23T13:37:47.513Z,3280
2017-07-23T13:39:03.242Z,3650
2017-07-23T13:40:18.740Z,3825
2017-07-23T13:41:34.221Z,4040
2017-07-23T13:42:49.942Z,710
2017-07-23T13:44:05.774Z,650
2017-07-23T13:45:21.441Z,855
2017-07-23T13:46:37.193Z,4060
2017-07-23T13:47:52.704Z,2410
2017-07-23T13:49:08.471Z,835
2017-07-23T13:50:23.891Z,1525
2017-07-23T13:51:39.467Z,940
2017-07-23T13:52:54.945Z,1200
2017-07-23T13:54:10.623Z,1365
2017-07-23T13:55:26.269Z,3835
2017-07-23T13:56:41.876Z,3790
2017-07-23T13:57:57.591Z,3555
2017-07-23T13:59:13.395Z,730
2017-07-23T14:00:29.077Z,715
2017-07-23T14:01:43.309Z,730
2017-07-23T14:02:58.965Z,745
2017-07-23T14:04:14.724Z,855
2017-07-23T14:05:30.229Z,1285
2017-07-23T14:06:45.748Z,1290
2017-07-23T14:08:01.268Z,1120
2017-07-23T14:09:17.078Z,1020
2017-07-23T14:10:32.941Z,860
2017-07-23T14:11:48.458Z,765
2017-07-23T14:13:04.159Z,765
2017-07-23T14:14:20.008Z,795
2017-07-23T14:15:35.497Z,950
2017-07-23T14:16:51.170Z,875
2017-07-23T14:18:06.903Z,2990
2017-07-23T14:19:22.666Z,3475
2017-07-23T14:20:38.106Z,2815
2017-07-23T14:21:52.357Z,1555
2017-07-23T14:23:07.851Z,1360
2017-07-23T14:24:23.408Z,1505
2017-07-23T14:25:38.909Z,1730
2017-07-23T14:26:54.407Z,3520
2017-07-23T14:28:10.092Z,1500
2017-07-23T14:29:25.835Z,2575
2017-07-23T14:30:41.350Z,3285
2017-07-23T14:31:57.007Z,890
2017-07-23T14:33:12.522Z,1115
2017-07-23T14:34:28.309Z,985
2017-07-23T14:35:43.853Z,875
2017-07-23T14:36:59.435Z,845
2017-07-23T14:38:13.633Z,705
2017-07-23T14:39:29.372Z,565
2017-07-23T14:40:44.898Z,500
2017-07-23T14:42:00.385Z,530
2017-07-23T14:43:15.903Z,725
2017-07-23T14:44:31.709Z,740
2017-07-23T14:45:47.188Z,905
2017-07-23T14:47:02.667Z,955
2017-07-23T14:48:18.230Z,1570
2017-07-23T14:49:33.942Z,3060
2017-07-23T14:50:49.617Z,2815
2017-07-23T14:52:04.720Z,2370
2017-07-23T14:53:20.240Z,2700
2017-07-23T14:54:36.069Z,2785
2017-07-23T14:55:51.658Z,2655
2017-07-23T14:57:05.871Z,2650
2017-07-23T14:58:21.390Z,2905
2017-07-23T14:59:37.118Z,3175
2017-07-23T15:00:52.645Z,665
2017-07-23T15:02:08.157Z,585
2017-07-23T15:03:22.356Z,505
2017-07-23T15:04:38.107Z,435
2017-07-23T15:05:53.646Z,420
2017-07-23T15:07:09.354Z,575
2017-07-23T15:08:24.901Z,945
2017-07-23T15:09:40.818Z,1390
2017-07-23T15:10:56.293Z,1240
2017-07-23T15:12:10.667Z,515
2017-07-23T15:13:26.223Z,470
2017-07-23T15:14:40.600Z,465
2017-07-23T15:15:56.099Z,470
2017-07-23T15:17:11.652Z,465
2017-07-23T15:18:27.143Z,440
2017-07-23T15:19:42.896Z,450
2017-07-23T15:20:58.423Z,470
2017-07-23T15:22:13.951Z,550
2017-07-23T15:23:29.669Z,560
2017-07-23T15:24:45.499Z,520
2017-07-23T15:26:01.044Z,495
2017-07-23T15:27:16.605Z,620
2017-07-23T15:28:32.070Z,555
2017-07-23T15:29:47.855Z,630
2017-07-23T15:31:03.517Z,610
2017-07-23T15:32:17.572Z,555
2017-07-23T15:33:33.073Z,495
2017-07-23T15:34:48.884Z,495
2017-07-23T15:36:04.410Z,490
2017-07-23T15:37:19.923Z,400
2017-07-23T15:38:35.439Z,415
2017-07-23T15:39:51.531Z,405
2017-07-23T15:41:07.208Z,440
2017-07-23T15:42:22.453Z,435
2017-07-23T15:43:38.117Z,460
2017-07-23T15:44:54.010Z,500
2017-07-23T15:46:08.247Z,495
2017-07-23T15:47:24.139Z,480
2017-07-23T15:48:39.685Z,440
2017-07-23T15:49:55.436Z,415
2017-07-23T15:51:09.638Z,420
2017-07-23T15:52:25.351Z,445
2017-07-23T15:53:40.824Z,465
2017-07-23T15:54:55.231Z,470
2017-07-23T15:56:10.876Z,475
2017-07-23T15:57:26.548Z,555
2017-07-23T15:58:42.020Z,550
2017-07-23T15:59:57.786Z,470
2017-07-23T16:01:13.396Z,395
2017-07-23T16:02:28.672Z,320
2017-07-23T16:03:42.911Z,375
2017-07-23T16:04:57.516Z,375
2017-07-23T16:06:13.012Z,410
2017-07-23T16:07:28.749Z,375
2017-07-23T16:08:44.282Z,370
2017-07-23T16:09:59.758Z,335
2017-07-23T16:11:15.343Z,305
2017-07-23T16:12:31.168Z,260
2017-07-23T16:13:46.671Z,255
2017-07-23T16:15:02.149Z,250
2017-07-23T16:16:17.747Z,255
2017-07-23T16:17:33.631Z,240
2017-07-23T16:18:49.322Z,235
2017-07-23T16:20:05.033Z,235
2017-07-23T16:21:20.545Z,225
2017-07-23T16:22:36.290Z,225
2017-07-23T16:23:51.765Z,210
2017-07-23T16:25:07.271Z,200
2017-07-23T16:26:22.760Z,210
2017-07-23T16:27:38.503Z,220
2017-07-23T16:28:54.217Z,210
2017-07-23T16:30:09.729Z,205
2017-07-23T16:31:25.256Z,190
2017-07-23T16:32:40.935Z,185
2017-07-23T16:33:56.418Z,190
2017-07-23T16:35:11.980Z,215
2017-07-23T16:36:27.522Z,270
2017-07-23T16:37:43.306Z,310
2017-07-23T16:38:58.797Z,340
2017-07-23T16:40:14.419Z,345
2017-07-23T16:41:29.921Z,340
2017-07-23T16:42:45.881Z,340
2017-07-23T16:44:01.586Z,300
2017-07-23T16:45:17.124Z,280
2017-07-23T16:46:32.628Z,255
2017-07-23T16:47:48.544Z,230
2017-07-23T16:49:04.007Z,220
2017-07-23T16:50:19.516Z,205
2017-07-23T16:51:35.092Z,200
2017-07-23T16:52:50.848Z,200
2017-07-23T16:54:06.456Z,205
2017-07-23T16:55:22.195Z,210
2017-07-23T16:56:37.708Z,225
2017-07-23T16:57:53.477Z,210
2017-07-23T16:59:08.584Z,195
2017-07-23T17:00:24.161Z,210
2017-07-23T17:01:39.779Z,210
2017-07-23T17:02:56.015Z,210
2017-07-23T17:04:11.520Z,210
2017-07-23T17:05:27.078Z,205
2017-07-23T17:06:42.791Z,200
2017-07-23T17:07:58.661Z,200
2017-07-23T17:09:14.099Z,195
2017-07-23T17:10:29.735Z,185
2017-07-23T17:11:45.217Z,175
2017-07-23T17:13:00.990Z,160
2017-07-23T17:14:16.454Z,150
2017-07-23T17:15:31.956Z,140
2017-07-23T17:16:47.704Z,130
2017-07-23T17:18:03.487Z,130
2017-07-23T17:19:19.013Z,140
2017-07-23T17:20:33.138Z,140
2017-07-23T17:21:48.903Z,135
2017-07-23T17:23:04.893Z,135
2017-07-23T17:24:20.594Z,135
2017-07-23T17:25:36.182Z,130
2017-07-23T17:26:51.672Z,130
2017-07-23T17:28:07.628Z,125
2017-07-23T17:29:23.124Z,120
2017-07-23T17:30:37.386Z,125